sensor_id;sensor_type;location;lat;lon;timestamp;pressure;altitude;pressure_sealevel;temperature;humidity
3544;BME280;1786;52.870;9.578;2022-07-18T00:01:59;101622.97;;;29.54;44.19
3544;BME280;1786;52.870;9.578;2022-07-18T00:04:26;101626.34;;;29.56;43.71
3544;BME280;1786;52.870;9.578;2022-07-18T00:06:53;101624.91;;;29.60;43.44
3544;BME280;1786;52.870;9.578;2022-07-18T00:09:20;101624.78;;;29.68;43.32
3544;BME280;1786;52.870;9.578;2022-07-18T00:11:52;101623.09;;;29.67;43.40
3544;BME280;1786;52.870;9.578;2022-07-18T00:14:20;101616.81;;;29.67;43.75
3544;BME280;1786;52.870;9.578;2022-07-18T00:16:48;101605.81;;;29.60;44.08
3544;BME280;1786;52.870;9.578;2022-07-18T00:19:15;101606.09;;;29.65;44.21
3544;BME280;1786;52.870;9.578;2022-07-18T00:21:42;101607.97;;;29.65;44.14
3544;BME280;1786;52.870;9.578;2022-07-18T00:24:09;101601.50;;;29.66;44.07
3544;BME280;1786;52.870;9.578;2022-07-18T00:26:36;101598.47;;;29.54;44.32
3544;BME280;1786;52.870;9.578;2022-07-18T00:29:03;101608.66;;;29.67;44.10
3544;BME280;1786;52.870;9.578;2022-07-18T00:31:32;101605.69;;;29.68;43.61
3544;BME280;1786;52.870;9.578;2022-07-18T00:34:00;101606.81;;;29.74;43.45
3544;BME280;1786;52.870;9.578;2022-07-18T00:36:27;101601.13;;;29.69;44.12
3544;BME280;1786;52.870;9.578;2022-07-18T00:38:55;101598.47;;;29.54;44.34
3544;BME280;1786;52.870;9.578;2022-07-18T00:41:23;101599.38;;;29.40;44.67
3544;BME280;1786;52.870;9.578;2022-07-18T00:43:50;101592.75;;;28.84;45.45
3544;BME280;1786;52.870;9.578;2022-07-18T00:46:21;101591.63;;;29.15;44.42
3544;BME280;1786;52.870;9.578;2022-07-18T00:48:48;101590.91;;;29.28;43.80
3544;BME280;1786;52.870;9.578;2022-07-18T00:51:16;101585.78;;;29.40;44.27
3544;BME280;1786;52.870;9.578;2022-07-18T00:53:44;101589.41;;;29.25;43.74
3544;BME280;1786;52.870;9.578;2022-07-18T00:56:16;101583.19;;;29.31;43.72
3544;BME280;1786;52.870;9.578;2022-07-18T00:58:44;101589.47;;;29.32;44.06
3544;BME280;1786;52.870;9.578;2022-07-18T01:01:12;101578.41;;;29.33;43.89
3544;BME280;1786;52.870;9.578;2022-07-18T01:03:57;101581.75;;;29.36;43.31
3544;BME280;1786;52.870;9.578;2022-07-18T01:06:24;101591.38;;;29.31;43.64
3544;BME280;1786;52.870;9.578;2022-07-18T01:08:50;101588.25;;;29.34;43.36
3544;BME280;1786;52.870;9.578;2022-07-18T01:11:17;101589.53;;;29.39;42.96
3544;BME280;1786;52.870;9.578;2022-07-18T01:13:43;101589.91;;;29.36;43.46
3544;BME280;1786;52.870;9.578;2022-07-18T01:16:14;101587.19;;;29.36;42.92
3544;BME280;1786;52.870;9.578;2022-07-18T01:18:46;101579.97;;;29.21;43.23
3544;BME280;1786;52.870;9.578;2022-07-18T01:21:14;101588.53;;;29.18;43.74
3544;BME280;1786;52.870;9.578;2022-07-18T01:23:41;101581.78;;;29.14;43.51
3544;BME280;1786;52.870;9.578;2022-07-18T01:26:09;101586.75;;;29.10;43.39
3544;BME280;1786;52.870;9.578;2022-07-18T01:28:35;101587.97;;;28.86;43.86
3544;BME280;1786;52.870;9.578;2022-07-18T01:31:02;101586.59;;;28.97;43.45
3544;BME280;1786;52.870;9.578;2022-07-18T01:33:33;101583.78;;;29.05;43.78
3544;BME280;1786;52.870;9.578;2022-07-18T01:36:01;101584.97;;;29.03;43.86
3544;BME280;1786;52.870;9.578;2022-07-18T01:38:29;101584.66;;;29.06;44.01
3544;BME280;1786;52.870;9.578;2022-07-18T01:40:57;101584.03;;;28.89;43.83
3544;BME280;1786;52.870;9.578;2022-07-18T01:43:25;101586.94;;;28.87;43.95
3544;BME280;1786;52.870;9.578;2022-07-18T01:45:54;101580.78;;;29.00;43.25
3544;BME280;1786;52.870;9.578;2022-07-18T01:48:21;101577.88;;;29.02;43.14
3544;BME280;1786;52.870;9.578;2022-07-18T01:50:51;101574.06;;;28.96;43.60
3544;BME280;1786;52.870;9.578;2022-07-18T01:53:19;101570.66;;;28.73;43.66
3544;BME280;1786;52.870;9.578;2022-07-18T01:55:46;101564.25;;;26.94;46.54
3544;BME280;1786;52.870;9.578;2022-07-18T01:58:13;101552.28;;;26.26;47.66
3544;BME280;1786;52.870;9.578;2022-07-18T02:00:40;101564.22;;;26.00;48.59
3544;BME280;1786;52.870;9.578;2022-07-18T02:03:07;101561.38;;;25.94;48.39
3544;BME280;1786;52.870;9.578;2022-07-18T02:05:34;101568.34;;;25.88;48.63
3544;BME280;1786;52.870;9.578;2022-07-18T02:08:00;101558.31;;;25.80;49.20
3544;BME280;1786;52.870;9.578;2022-07-18T02:10:27;101559.38;;;25.71;49.35
3544;BME280;1786;52.870;9.578;2022-07-18T02:12:54;101545.69;;;25.56;49.38
3544;BME280;1786;52.870;9.578;2022-07-18T02:15:20;101551.09;;;25.64;49.64
3544;BME280;1786;52.870;9.578;2022-07-18T02:17:47;101549.41;;;25.63;49.36
3544;BME280;1786;52.870;9.578;2022-07-18T02:20:15;101556.84;;;25.61;49.53
3544;BME280;1786;52.870;9.578;2022-07-18T02:22:43;101547.91;;;25.61;49.09
3544;BME280;1786;52.870;9.578;2022-07-18T02:25:11;101549.94;;;25.59;49.43
3544;BME280;1786;52.870;9.578;2022-07-18T02:27:37;101554.34;;;25.52;49.31
3544;BME280;1786;52.870;9.578;2022-07-18T02:30:06;101547.91;;;25.44;49.44
3544;BME280;1786;52.870;9.578;2022-07-18T02:32:34;101547.59;;;25.31;49.71
3544;BME280;1786;52.870;9.578;2022-07-18T02:35:05;101544.22;;;25.29;49.58
3544;BME280;1786;52.870;9.578;2022-07-18T02:37:33;101549.63;;;25.29;49.35
3544;BME280;1786;52.870;9.578;2022-07-18T02:40:00;101539.31;;;25.16;50.08
3544;BME280;1786;52.870;9.578;2022-07-18T02:42:27;101552.13;;;25.14;49.43
3544;BME280;1786;52.870;9.578;2022-07-18T02:44:54;101550.97;;;25.17;49.13
3544;BME280;1786;52.870;9.578;2022-07-18T02:47:20;101548.59;;;25.05;49.88
3544;BME280;1786;52.870;9.578;2022-07-18T02:49:47;101550.25;;;25.07;49.57
3544;BME280;1786;52.870;9.578;2022-07-18T02:52:13;101557.69;;;25.04;49.54
3544;BME280;1786;52.870;9.578;2022-07-18T02:54:40;101548.75;;;24.96;49.89
3544;BME280;1786;52.870;9.578;2022-07-18T02:57:07;101544.34;;;24.87;50.01
3544;BME280;1786;52.870;9.578;2022-07-18T02:59:33;101543.50;;;24.94;49.78
3544;BME280;1786;52.870;9.578;2022-07-18T03:02:00;101550.25;;;25.07;49.55
3544;BME280;1786;52.870;9.578;2022-07-18T03:04:27;101549.75;;;25.11;49.62
3544;BME280;1786;52.870;9.578;2022-07-18T03:06:54;101543.53;;;25.11;49.39
3544;BME280;1786;52.870;9.578;2022-07-18T03:09:21;101541.31;;;24.98;49.60
3544;BME280;1786;52.870;9.578;2022-07-18T03:11:47;101540.13;;;25.00;49.65
3544;BME280;1786;52.870;9.578;2022-07-18T03:14:14;101543.19;;;25.05;49.61
3544;BME280;1786;52.870;9.578;2022-07-18T03:16:41;101546.03;;;24.96;49.97
3544;BME280;1786;52.870;9.578;2022-07-18T03:19:07;101545.03;;;25.05;49.45
3544;BME280;1786;52.870;9.578;2022-07-18T03:21:34;101550.44;;;25.13;49.24
3544;BME280;1786;52.870;9.578;2022-07-18T03:24:01;101548.59;;;24.97;49.51
3544;BME280;1786;52.870;9.578;2022-07-18T03:26:27;101542.66;;;24.94;49.95
3544;BME280;1786;52.870;9.578;2022-07-18T03:28:55;101546.38;;;24.93;49.63
3544;BME280;1786;52.870;9.578;2022-07-18T03:31:22;101545.53;;;25.00;49.80
3544;BME280;1786;52.870;9.578;2022-07-18T03:33:48;101550.59;;;25.03;49.93
3544;BME280;1786;52.870;9.578;2022-07-18T03:36:15;101553.31;;;25.03;50.13
3544;BME280;1786;52.870;9.578;2022-07-18T03:38:43;101548.56;;;24.89;50.81
3544;BME280;1786;52.870;9.578;2022-07-18T03:41:10;101550.59;;;25.03;50.70
3544;BME280;1786;52.870;9.578;2022-07-18T03:43:39;101539.44;;;25.07;50.78
3544;BME280;1786;52.870;9.578;2022-07-18T03:46:06;101536.72;;;25.15;50.13
3544;BME280;1786;52.870;9.578;2022-07-18T03:48:35;101533.91;;;25.16;50.60
3544;BME280;1786;52.870;9.578;2022-07-18T03:51:02;101534.56;;;25.26;50.31
3544;BME280;1786;52.870;9.578;2022-07-18T03:53:30;101538.13;;;25.35;50.17
3544;BME280;1786;52.870;9.578;2022-07-18T03:55:57;101528.63;;;25.39;49.95
3544;BME280;1786;52.870;9.578;2022-07-18T03:58:24;101538.28;;;25.42;49.93
3544;BME280;1786;52.870;9.578;2022-07-18T04:00:51;101531.66;;;25.44;50.34
3544;BME280;1786;52.870;9.578;2022-07-18T04:03:17;101542.16;;;25.39;50.67
3544;BME280;1786;52.870;9.578;2022-07-18T04:05:46;101537.28;;;25.43;50.59
3544;BME280;1786;52.870;9.578;2022-07-18T04:08:13;101542.31;;;25.54;50.41
3544;BME280;1786;52.870;9.578;2022-07-18T04:10:40;101537.91;;;25.61;50.05
3544;BME280;1786;52.870;9.578;2022-07-18T04:13:07;101538.06;;;25.68;50.00
3544;BME280;1786;52.870;9.578;2022-07-18T04:15:35;101534.16;;;25.62;50.35
3544;BME280;1786;52.870;9.578;2022-07-18T04:18:04;101533.63;;;25.75;50.29
3544;BME280;1786;52.870;9.578;2022-07-18T04:20:32;101537.00;;;25.77;49.89
3544;BME280;1786;52.870;9.578;2022-07-18T04:23:00;101539.56;;;25.79;50.04
3544;BME280;1786;52.870;9.578;2022-07-18T04:25:32;101542.03;;;26.05;49.35
3544;BME280;1786;52.870;9.578;2022-07-18T04:28:00;101539.78;;;26.17;49.62
3544;BME280;1786;52.870;9.578;2022-07-18T04:30:28;101539.59;;;26.18;49.18
3544;BME280;1786;52.870;9.578;2022-07-18T04:32:56;101530.19;;;26.37;49.47
3544;BME280;1786;52.870;9.578;2022-07-18T04:35:23;101533.16;;;26.50;49.06
3544;BME280;1786;52.870;9.578;2022-07-18T04:37:50;101523.44;;;26.64;48.81
3544;BME280;1786;52.870;9.578;2022-07-18T04:40:18;101527.91;;;26.57;48.88
3544;BME280;1786;52.870;9.578;2022-07-18T04:42:46;101529.59;;;26.50;49.19
3544;BME280;1786;52.870;9.578;2022-07-18T04:45:12;101523.50;;;26.48;49.27
3544;BME280;1786;52.870;9.578;2022-07-18T04:47:40;101519.03;;;26.63;49.14
3544;BME280;1786;52.870;9.578;2022-07-18T04:50:07;101522.31;;;26.50;49.15
3544;BME280;1786;52.870;9.578;2022-07-18T04:52:41;101515.44;;;26.40;49.31
3544;BME280;1786;52.870;9.578;2022-07-18T04:55:09;101518.44;;;26.99;48.63
3544;BME280;1786;52.870;9.578;2022-07-18T04:57:37;101523.66;;;27.24;48.63
3544;BME280;1786;52.870;9.578;2022-07-18T05:00:06;101522.38;;;27.49;48.23
3544;BME280;1786;52.870;9.578;2022-07-18T05:02:33;101521.47;;;27.72;48.37
3544;BME280;1786;52.870;9.578;2022-07-18T05:05:00;101521.94;;;27.60;48.01
3544;BME280;1786;52.870;9.578;2022-07-18T05:07:27;101519.13;;;27.54;48.25
3544;BME280;1786;52.870;9.578;2022-07-18T05:09:53;101502.03;;;27.83;47.57
3544;BME280;1786;52.870;9.578;2022-07-18T05:12:20;101510.19;;;27.83;48.02
3544;BME280;1786;52.870;9.578;2022-07-18T05:14:50;101520.56;;;27.65;47.96
3544;BME280;1786;52.870;9.578;2022-07-18T05:17:28;101512.97;;;27.60;48.08
3544;BME280;1786;52.870;9.578;2022-07-18T05:19:55;101513.59;;;27.77;47.37
3544;BME280;1786;52.870;9.578;2022-07-18T05:22:22;101516.28;;;27.85;47.53
3544;BME280;1786;52.870;9.578;2022-07-18T05:24:49;101517.66;;;28.11;47.10
3544;BME280;1786;52.870;9.578;2022-07-18T05:27:16;101512.16;;;28.40;46.79
3544;BME280;1786;52.870;9.578;2022-07-18T05:29:43;101523.72;;;28.85;46.31
3544;BME280;1786;52.870;9.578;2022-07-18T05:32:09;101518.31;;;28.92;46.00
3544;BME280;1786;52.870;9.578;2022-07-18T05:34:37;101527.47;;;29.62;44.89
3544;BME280;1786;52.870;9.578;2022-07-18T05:37:05;101526.13;;;30.89;44.31
3544;BME280;1786;52.870;9.578;2022-07-18T05:39:32;101531.06;;;32.44;41.45
3544;BME280;1786;52.870;9.578;2022-07-18T05:41:59;101531.88;;;34.62;38.64
3544;BME280;1786;52.870;9.578;2022-07-18T05:44:26;101544.88;;;36.72;36.50
3544;BME280;1786;52.870;9.578;2022-07-18T05:46:53;101548.63;;;38.33;34.68
3544;BME280;1786;52.870;9.578;2022-07-18T05:49:19;101550.75;;;39.50;32.89
3544;BME280;1786;52.870;9.578;2022-07-18T05:51:46;101542.94;;;39.89;32.73
3544;BME280;1786;52.870;9.578;2022-07-18T05:54:18;101534.66;;;39.36;32.56
3544;BME280;1786;52.870;9.578;2022-07-18T05:56:49;101533.25;;;39.34;32.32
3544;BME280;1786;52.870;9.578;2022-07-18T05:59:18;101526.22;;;39.26;32.75
3544;BME280;1786;52.870;9.578;2022-07-18T06:01:45;101534.91;;;39.83;31.94
3544;BME280;1786;52.870;9.578;2022-07-18T06:04:11;101525.84;;;39.50;32.62
3544;BME280;1786;52.870;9.578;2022-07-18T06:06:39;101537.00;;;40.28;31.55
3544;BME280;1786;52.870;9.578;2022-07-18T06:09:06;101538.03;;;40.12;31.76
3544;BME280;1786;52.870;9.578;2022-07-18T06:11:32;101531.84;;;39.84;32.10
3544;BME280;1786;52.870;9.578;2022-07-18T06:14:00;101525.34;;;39.15;32.69
3544;BME280;1786;52.870;9.578;2022-07-18T06:16:29;101519.81;;;38.02;33.49
3544;BME280;1786;52.870;9.578;2022-07-18T06:18:57;101519.38;;;37.32;34.35
3544;BME280;1786;52.870;9.578;2022-07-18T06:21:24;101511.38;;;37.31;34.24
3544;BME280;1786;52.870;9.578;2022-07-18T06:23:51;101516.56;;;36.93;34.63
3544;BME280;1786;52.870;9.578;2022-07-18T06:26:18;101511.25;;;36.01;35.65
3544;BME280;1786;52.870;9.578;2022-07-18T06:28:45;101499.59;;;36.22;35.93
3544;BME280;1786;52.870;9.578;2022-07-18T06:31:13;101496.75;;;35.65;36.39
3544;BME280;1786;52.870;9.578;2022-07-18T06:33:43;101504.41;;;35.51;36.15
3544;BME280;1786;52.870;9.578;2022-07-18T06:36:10;101500.47;;;36.39;35.48
3544;BME280;1786;52.870;9.578;2022-07-18T06:38:39;101495.91;;;37.30;35.20
3544;BME280;1786;52.870;9.578;2022-07-18T06:41:06;101508.69;;;37.97;34.83
3544;BME280;1786;52.870;9.578;2022-07-18T06:43:33;101510.38;;;37.76;34.05
3544;BME280;1786;52.870;9.578;2022-07-18T06:46:00;101513.66;;;38.44;33.33
3544;BME280;1786;52.870;9.578;2022-07-18T06:48:26;101516.28;;;38.61;33.24
3544;BME280;1786;52.870;9.578;2022-07-18T06:51:02;101515.66;;;38.26;33.37
3544;BME280;1786;52.870;9.578;2022-07-18T06:53:31;101511.94;;;38.97;32.50
3544;BME280;1786;52.870;9.578;2022-07-18T06:55:59;101508.56;;;38.90;32.36
3544;BME280;1786;52.870;9.578;2022-07-18T06:58:26;101513.50;;;39.68;32.20
3544;BME280;1786;52.870;9.578;2022-07-18T07:00:52;101520.13;;;39.67;31.75
3544;BME280;1786;52.870;9.578;2022-07-18T07:03:19;101517.59;;;39.60;31.98
3544;BME280;1786;52.870;9.578;2022-07-18T07:05:46;101522.50;;;40.06;31.27
3544;BME280;1786;52.870;9.578;2022-07-18T07:08:13;101521.00;;;40.66;30.46
3544;BME280;1786;52.870;9.578;2022-07-18T07:10:40;101512.66;;;41.02;30.86
3544;BME280;1786;52.870;9.578;2022-07-18T07:13:07;101511.59;;;40.98;30.45
3544;BME280;1786;52.870;9.578;2022-07-18T07:15:40;101502.38;;;40.31;30.86
3544;BME280;1786;52.870;9.578;2022-07-18T07:18:09;101504.31;;;40.25;30.82
3544;BME280;1786;52.870;9.578;2022-07-18T07:20:37;101497.63;;;41.54;30.45
3544;BME280;1786;52.870;9.578;2022-07-18T07:23:04;101512.91;;;42.11;29.37
3544;BME280;1786;52.870;9.578;2022-07-18T07:25:35;101514.63;;;42.47;28.14
3544;BME280;1786;52.870;9.578;2022-07-18T07:28:02;101515.81;;;43.33;27.97
3544;BME280;1786;52.870;9.578;2022-07-18T07:30:29;101514.03;;;43.13;27.95
3544;BME280;1786;52.870;9.578;2022-07-18T07:32:57;101517.88;;;43.22;27.76
3544;BME280;1786;52.870;9.578;2022-07-18T07:35:24;101519.00;;;43.46;27.92
3544;BME280;1786;52.870;9.578;2022-07-18T07:37:53;101517.88;;;43.47;27.35
3544;BME280;1786;52.870;9.578;2022-07-18T07:40:23;101514.56;;;43.69;27.92
3544;BME280;1786;52.870;9.578;2022-07-18T07:42:51;101515.00;;;43.33;28.08
3544;BME280;1786;52.870;9.578;2022-07-18T07:45:19;101518.56;;;43.62;27.63
3544;BME280;1786;52.870;9.578;2022-07-18T07:47:45;101514.72;;;43.29;28.39
3544;BME280;1786;52.870;9.578;2022-07-18T07:50:13;101515.78;;;43.81;27.51
3544;BME280;1786;52.870;9.578;2022-07-18T07:52:40;101523.09;;;44.72;27.04
3544;BME280;1786;52.870;9.578;2022-07-18T07:55:07;101524.38;;;45.40;26.74
3544;BME280;1786;52.870;9.578;2022-07-18T07:57:34;101515.50;;;45.52;26.65
3544;BME280;1786;52.870;9.578;2022-07-18T08:00:04;101514.47;;;45.75;26.47
3544;BME280;1786;52.870;9.578;2022-07-18T08:02:37;101509.41;;;45.64;26.48
3544;BME280;1786;52.870;9.578;2022-07-18T08:05:24;101514.72;;;46.02;27.12
3544;BME280;1786;52.870;9.578;2022-07-18T08:07:51;101522.72;;;46.31;26.98
3544;BME280;1786;52.870;9.578;2022-07-18T08:10:18;101510.53;;;45.35;25.81
3544;BME280;1786;52.870;9.578;2022-07-18T08:12:45;101511.84;;;46.29;25.39
3544;BME280;1786;52.870;9.578;2022-07-18T08:15:12;101514.09;;;46.63;24.84
3544;BME280;1786;52.870;9.578;2022-07-18T08:17:40;101514.72;;;46.83;25.81
3544;BME280;1786;52.870;9.578;2022-07-18T08:20:13;101515.97;;;47.31;25.06
3544;BME280;1786;52.870;9.578;2022-07-18T08:22:56;101510.84;;;47.33;25.66
3544;BME280;1786;52.870;9.578;2022-07-18T08:25:23;101512.66;;;46.97;24.52
3544;BME280;1786;52.870;9.578;2022-07-18T08:27:51;101505.53;;;46.37;25.80
3544;BME280;1786;52.870;9.578;2022-07-18T08:30:19;101507.91;;;45.94;26.02
3544;BME280;1786;52.870;9.578;2022-07-18T08:32:47;101514.34;;;46.17;26.80
3544;BME280;1786;52.870;9.578;2022-07-18T08:35:14;101512.13;;;46.41;25.55
3544;BME280;1786;52.870;9.578;2022-07-18T08:37:40;101505.22;;;46.03;24.32
3544;BME280;1786;52.870;9.578;2022-07-18T08:40:08;101498.75;;;44.78;25.68
3544;BME280;1786;52.870;9.578;2022-07-18T08:42:35;101497.19;;;45.18;25.32
3544;BME280;1786;52.870;9.578;2022-07-18T08:45:24;101492.38;;;46.02;26.31
3544;BME280;1786;52.870;9.578;2022-07-18T08:47:51;101497.00;;;46.43;25.41
3544;BME280;1786;52.870;9.578;2022-07-18T08:50:19;101494.28;;;46.82;25.67
3544;BME280;1786;52.870;9.578;2022-07-18T08:52:46;101483.66;;;47.24;24.43
3544;BME280;1786;52.870;9.578;2022-07-18T08:55:21;101485.41;;;47.12;26.28
3544;BME280;1786;52.870;9.578;2022-07-18T08:57:53;101461.75;;;44.72;25.26
3544;BME280;1786;52.870;9.578;2022-07-18T09:00:21;101465.50;;;44.29;27.33
3544;BME280;1786;52.870;9.578;2022-07-18T09:03:02;101460.81;;;45.37;25.69
3544;BME280;1786;52.870;9.578;2022-07-18T09:05:31;101453.22;;;44.49;25.30
3544;BME280;1786;52.870;9.578;2022-07-18T09:08:18;101449.66;;;44.11;25.99
3544;BME280;1786;52.870;9.578;2022-07-18T09:10:53;101450.75;;;43.72;26.15
3544;BME280;1786;52.870;9.578;2022-07-18T09:13:40;101452.00;;;42.89;27.24
3544;BME280;1786;52.870;9.578;2022-07-18T09:16:08;101445.31;;;42.61;27.30
3544;BME280;1786;52.870;9.578;2022-07-18T09:18:46;101445.56;;;43.17;27.55
3544;BME280;1786;52.870;9.578;2022-07-18T09:21:16;101444.75;;;43.84;27.12
3544;BME280;1786;52.870;9.578;2022-07-18T09:23:49;101446.00;;;44.29;27.91
3544;BME280;1786;52.870;9.578;2022-07-18T09:26:42;101442.25;;;44.20;27.43
3544;BME280;1786;52.870;9.578;2022-07-18T09:29:16;101441.75;;;44.18;27.11
3544;BME280;1786;52.870;9.578;2022-07-18T09:32:03;101454.03;;;44.50;26.27
3544;BME280;1786;52.870;9.578;2022-07-18T09:34:35;101456.09;;;44.44;26.30
3544;BME280;1786;52.870;9.578;2022-07-18T09:37:04;101453.38;;;44.72;26.38
3544;BME280;1786;52.870;9.578;2022-07-18T09:39:36;101458.69;;;44.87;27.54
3544;BME280;1786;52.870;9.578;2022-07-18T09:42:14;101461.66;;;45.24;26.18
3544;BME280;1786;52.870;9.578;2022-07-18T09:44:41;101463.16;;;45.02;27.77
3544;BME280;1786;52.870;9.578;2022-07-18T09:47:08;101472.31;;;46.00;26.20
3544;BME280;1786;52.870;9.578;2022-07-18T09:49:34;101474.91;;;46.32;25.48
3544;BME280;1786;52.870;9.578;2022-07-18T09:52:05;101471.97;;;46.37;25.50
3544;BME280;1786;52.870;9.578;2022-07-18T09:54:39;101462.69;;;45.92;25.86
3544;BME280;1786;52.870;9.578;2022-07-18T09:57:07;101456.94;;;45.05;25.70
3544;BME280;1786;52.870;9.578;2022-07-18T09:59:36;101455.81;;;45.06;26.88
3544;BME280;1786;52.870;9.578;2022-07-18T10:02:04;101446.41;;;45.16;25.93
3544;BME280;1786;52.870;9.578;2022-07-18T10:04:31;101447.84;;;45.13;26.11
3544;BME280;1786;52.870;9.578;2022-07-18T10:06:57;101444.66;;;45.06;26.87
3544;BME280;1786;52.870;9.578;2022-07-18T10:09:25;101436.31;;;45.20;25.16
3544;BME280;1786;52.870;9.578;2022-07-18T10:11:53;101433.06;;;42.27;27.16
3544;BME280;1786;52.870;9.578;2022-07-18T10:14:28;101435.28;;;41.81;27.47
3544;BME280;1786;52.870;9.578;2022-07-18T10:16:57;101428.41;;;42.18;27.43
3544;BME280;1786;52.870;9.578;2022-07-18T10:19:25;101423.97;;;42.85;26.68
3544;BME280;1786;52.870;9.578;2022-07-18T10:21:53;101427.16;;;42.68;26.24
3544;BME280;1786;52.870;9.578;2022-07-18T10:24:21;101430.81;;;41.85;27.82
3544;BME280;1786;52.870;9.578;2022-07-18T10:29:39;101417.31;;;40.62;28.21
3544;BME280;1786;52.870;9.578;2022-07-18T10:32:33;101410.94;;;40.87;29.65
3544;BME280;1786;52.870;9.578;2022-07-18T10:35:02;101408.25;;;41.47;29.66
3544;BME280;1786;52.870;9.578;2022-07-18T10:37:31;101405.94;;;42.14;28.22
3544;BME280;1786;52.870;9.578;2022-07-18T10:40:29;101408.81;;;42.38;27.19
3544;BME280;1786;52.870;9.578;2022-07-18T10:45:54;101417.00;;;43.55;27.90
3544;BME280;1786;52.870;9.578;2022-07-18T10:51:06;101428.53;;;44.24;26.48
3544;BME280;1786;52.870;9.578;2022-07-18T10:58:55;101419.88;;;45.19;25.63
3544;BME280;1786;52.870;9.578;2022-07-18T11:01:23;101411.56;;;45.41;27.50
3544;BME280;1786;52.870;9.578;2022-07-18T11:04:30;101423.00;;;46.71;25.02
3544;BME280;1786;52.870;9.578;2022-07-18T11:07:09;101418.53;;;47.59;24.66
3544;BME280;1786;52.870;9.578;2022-07-18T11:09:41;101422.34;;;47.14;24.34
3544;BME280;1786;52.870;9.578;2022-07-18T11:12:17;101420.03;;;45.64;24.86
3544;BME280;1786;52.870;9.578;2022-07-18T11:15:05;101409.72;;;47.34;26.40
3544;BME280;1786;52.870;9.578;2022-07-18T11:23:03;101420.19;;;46.71;25.11
3544;BME280;1786;52.870;9.578;2022-07-18T11:25:31;101431.38;;;48.03;24.02
3544;BME280;1786;52.870;9.578;2022-07-18T11:28:18;101431.13;;;48.69;23.91
3544;BME280;1786;52.870;9.578;2022-07-18T11:31:06;101423.78;;;48.13;23.74
3544;BME280;1786;52.870;9.578;2022-07-18T11:33:36;101413.44;;;48.22;23.11
3544;BME280;1786;52.870;9.578;2022-07-18T11:36:08;101409.53;;;47.13;25.06
3544;BME280;1786;52.870;9.578;2022-07-18T11:38:37;101394.84;;;45.27;26.46
3544;BME280;1786;52.870;9.578;2022-07-18T11:41:05;101387.81;;;46.79;25.20
3544;BME280;1786;52.870;9.578;2022-07-18T11:43:32;101385.19;;;45.97;26.70
3544;BME280;1786;52.870;9.578;2022-07-18T11:46:03;101390.31;;;46.89;25.55
3544;BME280;1786;52.870;9.578;2022-07-18T11:48:32;101380.94;;;46.54;24.36
3544;BME280;1786;52.870;9.578;2022-07-18T11:50:59;101382.59;;;46.55;26.15
3544;BME280;1786;52.870;9.578;2022-07-18T11:53:28;101380.28;;;46.57;25.61
3544;BME280;1786;52.870;9.578;2022-07-18T11:55:55;101386.34;;;47.39;23.26
3544;BME280;1786;52.870;9.578;2022-07-18T11:58:22;101373.03;;;47.71;23.47
3544;BME280;1786;52.870;9.578;2022-07-18T12:00:49;101374.16;;;47.43;23.29
3544;BME280;1786;52.870;9.578;2022-07-18T12:03:21;101362.13;;;47.34;24.18
3544;BME280;1786;52.870;9.578;2022-07-18T12:05:52;101357.41;;;47.61;24.57
3544;BME280;1786;52.870;9.578;2022-07-18T12:11:13;101355.09;;;46.97;25.76
3544;BME280;1786;52.870;9.578;2022-07-18T12:13:56;101355.56;;;46.81;24.43
3544;BME280;1786;52.870;9.578;2022-07-18T12:16:31;101354.84;;;47.24;24.49
3544;BME280;1786;52.870;9.578;2022-07-18T12:19:06;101345.84;;;47.62;24.98
3544;BME280;1786;52.870;9.578;2022-07-18T12:21:49;101341.38;;;47.44;24.38
3544;BME280;1786;52.870;9.578;2022-07-18T12:24:38;101338.94;;;47.86;24.48
3544;BME280;1786;52.870;9.578;2022-07-18T12:30:06;101337.38;;;48.23;24.33
3544;BME280;1786;52.870;9.578;2022-07-18T12:32:46;101338.59;;;48.43;23.02
3544;BME280;1786;52.870;9.578;2022-07-18T12:35:20;101339.59;;;48.47;22.94
3544;BME280;1786;52.870;9.578;2022-07-18T12:37:56;101333.97;;;48.86;23.74
3544;BME280;1786;52.870;9.578;2022-07-18T12:43:09;101338.06;;;48.88;24.13
3544;BME280;1786;52.870;9.578;2022-07-18T12:45:37;101323.44;;;47.71;24.69
3544;BME280;1786;52.870;9.578;2022-07-18T12:48:06;101323.91;;;47.73;22.70
3544;BME280;1786;52.870;9.578;2022-07-18T12:50:34;101317.63;;;47.15;24.25
3544;BME280;1786;52.870;9.578;2022-07-18T12:53:00;101317.06;;;46.47;23.41
3544;BME280;1786;52.870;9.578;2022-07-18T12:55:27;101314.09;;;46.83;24.08
3544;BME280;1786;52.870;9.578;2022-07-18T12:57:58;101320.22;;;45.69;24.41
3544;BME280;1786;52.870;9.578;2022-07-18T13:00:26;101312.06;;;46.04;24.32
3544;BME280;1786;52.870;9.578;2022-07-18T13:02:53;101304.13;;;46.20;24.28
3544;BME280;1786;52.870;9.578;2022-07-18T13:05:26;101310.94;;;45.83;25.11
3544;BME280;1786;52.870;9.578;2022-07-18T13:07:54;101304.03;;;45.44;25.56
3544;BME280;1786;52.870;9.578;2022-07-18T13:10:20;101309.09;;;45.19;25.49
3544;BME280;1786;52.870;9.578;2022-07-18T13:12:47;101308.06;;;45.74;25.14
3544;BME280;1786;52.870;9.578;2022-07-18T13:15:14;101302.66;;;46.23;25.48
3544;BME280;1786;52.870;9.578;2022-07-18T13:17:41;101300.63;;;46.86;25.27
3544;BME280;1786;52.870;9.578;2022-07-18T13:20:08;101307.13;;;47.82;23.70
3544;BME280;1786;52.870;9.578;2022-07-18T13:22:34;101302.16;;;47.70;24.53
3544;BME280;1786;52.870;9.578;2022-07-18T13:25:06;101303.47;;;47.73;22.81
3544;BME280;1786;52.870;9.578;2022-07-18T13:27:33;101293.81;;;48.26;24.06
3544;BME280;1786;52.870;9.578;2022-07-18T13:30:01;101292.31;;;47.20;23.29
3544;BME280;1786;52.870;9.578;2022-07-18T13:32:28;101280.97;;;46.68;24.83
3544;BME280;1786;52.870;9.578;2022-07-18T13:34:55;101278.47;;;47.50;24.37
3544;BME280;1786;52.870;9.578;2022-07-18T13:37:22;101265.72;;;47.96;25.03
3544;BME280;1786;52.870;9.578;2022-07-18T13:39:49;101265.50;;;48.78;24.40
3544;BME280;1786;52.870;9.578;2022-07-18T13:42:16;101271.72;;;48.16;23.26
3544;BME280;1786;52.870;9.578;2022-07-18T13:44:43;101275.56;;;48.49;23.54
3544;BME280;1786;52.870;9.578;2022-07-18T13:47:12;101268.59;;;48.17;22.13
3544;BME280;1786;52.870;9.578;2022-07-18T13:49:39;101272.41;;;48.13;23.54